createdAt,value
2022-12-25T00:00:56.167Z,91.25
2022-12-25T00:03:22.919Z,91.22
2022-12-25T00:05:49.367Z,91.71
2022-12-25T00:08:15.721Z,90.90
2022-12-25T00:10:45.387Z,90.98
2022-12-25T00:13:12.233Z,90.81
2022-12-25T00:15:41.659Z,90.05
2022-12-25T00:18:08.163Z,90.64
2022-12-25T00:20:34.534Z,90.61
2022-12-25T00:23:00.851Z,90.32
2022-12-25T00:25:27.196Z,90.29
2022-12-25T00:27:53.560Z,90.24
2022-12-25T00:30:19.923Z,90.82
2022-12-25T00:32:46.343Z,90.31
2022-12-25T00:35:12.680Z,91.38
2022-12-25T00:37:39.137Z,91.10
2022-12-25T00:40:06.017Z,91.31
2022-12-25T00:42:32.436Z,90.28
2022-12-25T00:44:58.822Z,91.04
2022-12-25T00:47:25.211Z,91.19
2022-12-25T00:49:51.584Z,91.15
2022-12-25T00:52:17.928Z,91.53
2022-12-25T00:54:44.255Z,91.62
2022-12-25T00:57:10.612Z,90.83
2022-12-25T00:59:36.966Z,91.65
2022-12-25T01:02:21.995Z,91.69
2022-12-25T01:04:49.679Z,91.51
2022-12-25T01:07:18.972Z,91.28
2022-12-25T01:10:05.037Z,91.51
2022-12-25T01:12:33.613Z,91.40
2022-12-25T01:14:59.973Z,91.25
2022-12-25T01:17:26.331Z,91.01
2022-12-25T01:19:52.814Z,91.64
2022-12-25T01:22:19.834Z,91.32
2022-12-25T01:24:46.250Z,91.32
2022-12-25T01:27:12.583Z,91.55
2022-12-25T01:29:39.059Z,91.59
2022-12-25T01:32:05.982Z,91.91
2022-12-25T01:34:32.531Z,92.15
2022-12-25T01:36:58.941Z,91.96
2022-12-25T01:39:25.391Z,91.92
2022-12-25T01:41:51.803Z,91.64
2022-12-25T01:44:18.025Z,91.92
2022-12-25T01:46:44.925Z,91.75
2022-12-25T01:49:23.184Z,92.21
2022-12-25T01:51:57.212Z,91.65
2022-12-25T01:54:27.075Z,91.77
2022-12-25T01:56:55.387Z,92.15
2022-12-25T01:59:23.668Z,92.11
2022-12-25T02:01:50.603Z,91.74
2022-12-25T02:04:24.540Z,91.98
2022-12-25T02:06:51.629Z,92.06
2022-12-25T02:09:18.879Z,93.08
2022-12-25T02:11:58.308Z,93.20
2022-12-25T02:14:31.333Z,92.01
2022-12-25T02:17:13.505Z,92.63
2022-12-25T02:20:03.295Z,92.29
2022-12-25T02:22:49.457Z,91.71
2022-12-25T02:25:37.714Z,91.93
2022-12-25T02:28:22.758Z,92.25
2022-12-25T02:30:54.253Z,91.52
2022-12-25T02:33:53.109Z,91.48
2022-12-25T02:36:23.271Z,92.02
2022-12-25T02:39:12.725Z,92.56
2022-12-25T02:41:40.700Z,91.92
2022-12-25T02:44:31.172Z,92.05
2022-12-25T02:47:16.196Z,92.07
2022-12-25T02:50:00.919Z,92.03
2022-12-25T02:52:46.895Z,91.99
2022-12-25T02:55:35.296Z,92.46
2022-12-25T02:58:24.178Z,91.73
2022-12-25T03:01:14.228Z,92.20
2022-12-25T03:03:59.747Z,92.60
2022-12-25T03:06:43.373Z,92.50
2022-12-25T03:09:35.383Z,92.61
2022-12-25T03:12:29.698Z,91.62
2022-12-25T03:15:14.918Z,92.44
2022-12-25T03:17:41.311Z,92.26
2022-12-25T03:20:26.958Z,92.51
2022-12-25T03:23:11.856Z,92.90
2022-12-25T03:25:56.851Z,92.50
2022-12-25T03:28:23.179Z,92.77
2022-12-25T03:31:14.320Z,92.91
2022-12-25T03:34:18.039Z,91.92
2022-12-25T03:37:39.528Z,92.88
2022-12-25T03:40:36.084Z,92.04
2022-12-25T03:43:29.029Z,92.85
2022-12-25T03:46:16.918Z,92.78
2022-12-25T03:49:05.208Z,92.32
2022-12-25T03:51:51.243Z,92.85
2022-12-25T03:54:39.958Z,92.28
2022-12-25T03:57:25.634Z,92.08
2022-12-25T04:00:10.258Z,91.54
2022-12-25T04:02:56.137Z,91.92
2022-12-25T04:05:41.180Z,91.95
2022-12-25T04:08:26.013Z,92.08
2022-12-25T04:11:10.826Z,92.28
2022-12-25T04:13:55.953Z,91.78
2022-12-25T04:16:40.816Z,92.15
2022-12-25T04:19:25.506Z,92.76
2022-12-25T04:22:12.816Z,91.85
2022-12-25T04:24:57.503Z,91.75
2022-12-25T04:27:42.337Z,92.06
2022-12-25T04:30:27.524Z,92.30
2022-12-25T04:33:16.908Z,92.06
2022-12-25T04:36:06.282Z,93.06
2022-12-25T04:38:33.272Z,93.38
2022-12-25T04:41:00.830Z,93.06
2022-12-25T04:43:27.407Z,92.73
2022-12-25T04:45:59.402Z,92.47
2022-12-25T04:48:27.420Z,92.54
2022-12-25T04:50:53.989Z,92.56
2022-12-25T04:53:20.411Z,92.57
2022-12-25T04:55:46.739Z,92.64
2022-12-25T04:58:13.120Z,92.20
2022-12-25T05:00:42.292Z,92.53
2022-12-25T05:03:08.818Z,92.34
2022-12-25T05:05:39.057Z,92.92
2022-12-25T05:08:05.734Z,92.83
2022-12-25T05:10:32.140Z,93.05
2022-12-25T05:12:58.586Z,92.94
2022-12-25T05:15:24.980Z,93.16
2022-12-25T05:17:51.340Z,92.65
2022-12-25T05:20:18.154Z,92.54
2022-12-25T05:22:44.518Z,92.60
2022-12-25T05:25:11.010Z,91.86
2022-12-25T05:27:37.363Z,93.40
2022-12-25T05:30:04.071Z,92.77
2022-12-25T05:32:31.048Z,93.05
2022-12-25T05:34:59.498Z,92.21
2022-12-25T05:37:26.549Z,92.03
2022-12-25T05:39:52.901Z,92.77
2022-12-25T05:42:19.267Z,92.80
2022-12-25T05:44:45.594Z,92.81
2022-12-25T05:47:12.015Z,92.90
2022-12-25T05:49:38.324Z,92.65
2022-12-25T05:52:04.694Z,92.35
2022-12-25T05:54:31.055Z,92.46
2022-12-25T05:56:57.394Z,92.04
2022-12-25T05:59:23.771Z,92.41
2022-12-25T06:01:50.185Z,92.30
2022-12-25T06:04:16.752Z,92.54
2022-12-25T06:06:43.095Z,92.60
2022-12-25T06:09:11.908Z,92.02
2022-12-25T06:11:38.300Z,92.25
2022-12-25T06:14:04.896Z,91.90
2022-12-25T06:16:37.723Z,92.66
2022-12-25T06:19:04.379Z,92.81
2022-12-25T06:21:30.733Z,92.99
2022-12-25T06:23:57.284Z,93.11
2022-12-25T06:26:23.669Z,93.35
2022-12-25T06:28:50.030Z,93.54
2022-12-25T06:31:19.099Z,93.14
2022-12-25T06:33:45.716Z,93.33
2022-12-25T06:36:17.465Z,93.23
2022-12-25T06:38:43.919Z,93.57
2022-12-25T06:41:15.818Z,94.01
2022-12-25T06:43:42.483Z,93.18
2022-12-25T06:46:11.625Z,92.86
2022-12-25T06:48:39.326Z,93.85
2022-12-25T06:51:06.467Z,93.81
2022-12-25T06:53:39.880Z,93.59
2022-12-25T06:56:09.267Z,93.61
2022-12-25T06:58:35.762Z,93.28
2022-12-25T07:01:15.052Z,93.02
2022-12-25T07:03:42.914Z,92.63
2022-12-25T07:06:09.318Z,93.14
2022-12-25T07:08:35.652Z,93.09
2022-12-25T07:11:02.006Z,92.94
2022-12-25T07:13:28.464Z,92.63
2022-12-25T07:15:58.931Z,93.06
2022-12-25T07:18:26.146Z,93.29
2022-12-25T07:20:52.504Z,92.72
2022-12-25T07:23:18.879Z,93.63
2022-12-25T07:25:53.525Z,92.70
2022-12-25T07:28:19.892Z,92.97
2022-12-25T07:30:46.222Z,93.94
2022-12-25T07:33:12.602Z,93.18
2022-12-25T07:35:38.924Z,93.77
2022-12-25T07:38:05.284Z,93.15
2022-12-25T07:40:31.624Z,93.53
2022-12-25T07:42:58.006Z,93.83
2022-12-25T07:45:24.416Z,93.86
2022-12-25T07:47:53.776Z,93.82
2022-12-25T07:50:21.366Z,93.49
2022-12-25T07:52:47.706Z,94.03
2022-12-25T07:55:14.095Z,93.66
2022-12-25T07:57:40.437Z,93.86
2022-12-25T08:00:07.396Z,93.59
2022-12-25T08:02:33.990Z,93.20
2022-12-25T08:05:00.510Z,93.89
2022-12-25T08:07:27.287Z,93.65
2022-12-25T08:09:53.646Z,93.76
2022-12-25T08:12:20.023Z,93.69
2022-12-25T08:14:46.369Z,93.88
2022-12-25T08:17:12.722Z,92.84
2022-12-25T08:19:39.158Z,93.56
2022-12-25T08:22:05.744Z,93.93
2022-12-25T08:24:32.114Z,93.56
2022-12-25T08:26:58.687Z,93.67
2022-12-25T08:29:25.265Z,93.63
2022-12-25T08:31:51.721Z,93.84
2022-12-25T08:34:19.234Z,93.43
2022-12-25T08:36:45.671Z,93.53
2022-12-25T08:39:12.061Z,92.64
2022-12-25T08:41:38.513Z,93.02
2022-12-25T08:44:05.171Z,93.10
2022-12-25T08:46:31.693Z,92.97
2022-12-25T08:48:58.158Z,93.55
2022-12-25T08:51:25.768Z,93.72
2022-12-25T08:53:53.239Z,93.01
2022-12-25T08:56:20.287Z,93.59
2022-12-25T08:58:47.041Z,93.31
2022-12-25T09:01:13.613Z,93.39
2022-12-25T09:03:40.182Z,92.68
2022-12-25T09:06:09.393Z,93.27
2022-12-25T09:08:36.261Z,92.92
2022-12-25T09:11:03.861Z,92.92
2022-12-25T09:13:30.239Z,92.62
2022-12-25T09:15:56.655Z,93.23
2022-12-25T09:18:23.062Z,93.00
2022-12-25T09:21:03.652Z,93.25
2022-12-25T09:23:30.404Z,93.11
2022-12-25T09:26:01.050Z,92.57
2022-12-25T09:28:27.420Z,92.92
2022-12-25T09:30:54.020Z,93.32
2022-12-25T09:33:21.145Z,93.39
2022-12-25T09:35:58.112Z,92.24
2022-12-25T09:38:25.090Z,93.07
2022-12-25T09:41:02.186Z,93.02
2022-12-25T09:43:30.506Z,92.78
2022-12-25T09:45:57.969Z,92.69
2022-12-25T09:48:24.868Z,93.16
2022-12-25T09:50:56.772Z,93.11
2022-12-25T09:53:25.805Z,92.83
2022-12-25T09:56:00.147Z,92.44
2022-12-25T09:58:27.050Z,92.22
2022-12-25T10:01:01.484Z,92.11
2022-12-25T10:03:58.320Z,92.12
2022-12-25T10:06:30.621Z,92.59
2022-12-25T10:09:30.336Z,92.02
2022-12-25T10:12:15.327Z,91.62
2022-12-25T10:15:03.225Z,91.94
2022-12-25T10:18:04.939Z,91.58
2022-12-25T10:20:43.253Z,91.09
2022-12-25T10:23:14.786Z,90.91
2022-12-25T10:25:41.866Z,90.85
2022-12-25T10:28:40.612Z,90.99
2022-12-25T10:31:22.822Z,90.26
2022-12-25T10:33:50.436Z,90.24
2022-12-25T10:36:25.581Z,89.39
2022-12-25T10:38:52.351Z,90.16
2022-12-25T10:41:25.336Z,89.38
2022-12-25T10:43:56.604Z,90.26
2022-12-25T10:46:25.233Z,90.08
2022-12-25T10:49:00.176Z,88.93
2022-12-25T10:51:35.598Z,89.34
2022-12-25T10:54:03.121Z,89.73
2022-12-25T10:56:29.822Z,89.32
2022-12-25T10:59:06.920Z,89.02
2022-12-25T11:01:33.513Z,88.60
2022-12-25T11:03:59.998Z,88.84
2022-12-25T11:06:29.757Z,88.95
2022-12-25T11:09:02.839Z,88.23
2022-12-25T11:11:30.007Z,88.89
2022-12-25T11:13:59.300Z,88.70
2022-12-25T11:16:29.686Z,88.35
2022-12-25T11:18:57.036Z,88.91
2022-12-25T11:21:31.926Z,88.64
2022-12-25T11:24:04.408Z,88.22
2022-12-25T11:26:36.541Z,88.56
2022-12-25T11:29:03.276Z,88.49
2022-12-25T11:31:37.809Z,88.05
2022-12-25T11:34:16.663Z,88.62
2022-12-25T11:36:48.147Z,88.13
2022-12-25T11:39:29.099Z,88.27
2022-12-25T11:42:07.622Z,88.30
2022-12-25T11:44:45.540Z,88.74
2022-12-25T11:47:42.944Z,88.52
2022-12-25T11:50:15.560Z,88.21
2022-12-25T11:52:45.407Z,88.36
2022-12-25T11:55:33.577Z,88.82
2022-12-25T11:58:06.583Z,88.37
2022-12-25T12:00:35.331Z,88.19
2022-12-25T12:03:24.010Z,88.23
2022-12-25T12:06:05.509Z,87.94
2022-12-25T12:08:32.935Z,88.05
2022-12-25T12:11:37.521Z,87.70
2022-12-25T12:14:39.564Z,87.45
2022-12-25T12:17:10.965Z,87.82
2022-12-25T12:19:38.865Z,87.57
2022-12-25T12:22:05.545Z,87.08
2022-12-25T12:24:37.839Z,87.94
2022-12-25T12:27:21.080Z,86.89
2022-12-25T12:29:50.284Z,87.20
2022-12-25T12:32:35.070Z,86.55
2022-12-25T12:35:13.484Z,86.66
2022-12-25T12:37:40.648Z,85.58
2022-12-25T12:40:20.796Z,86.17
2022-12-25T12:42:50.444Z,86.21
2022-12-25T12:45:20.071Z,86.41
2022-12-25T12:47:50.928Z,86.39
2022-12-25T12:50:29.614Z,86.22
2022-12-25T12:52:56.167Z,86.00
2022-12-25T12:55:33.882Z,85.93
2022-12-25T12:58:02.648Z,86.11
2022-12-25T13:00:41.767Z,86.30
2022-12-25T13:03:40.933Z,85.71
2022-12-25T13:06:33.155Z,85.72
2022-12-25T13:09:15.155Z,85.82
2022-12-25T13:11:43.288Z,85.92
2022-12-25T13:14:16.089Z,85.61
2022-12-25T13:16:44.638Z,85.54
2022-12-25T13:19:15.093Z,85.34
2022-12-25T13:22:01.504Z,85.09
2022-12-25T13:24:30.899Z,85.60
2022-12-25T13:26:58.760Z,86.05
2022-12-25T13:29:33.343Z,86.01
2022-12-25T13:32:02.002Z,85.58
2022-12-25T13:34:31.817Z,85.18
2022-12-25T13:37:13.670Z,85.44
2022-12-25T13:39:48.083Z,85.42
2022-12-25T13:42:17.589Z,85.34
2022-12-25T13:44:59.001Z,85.93
2022-12-25T13:47:32.565Z,86.00
2022-12-25T13:50:01.816Z,86.11
2022-12-25T13:52:35.024Z,86.05
2022-12-25T13:55:12.226Z,86.31
2022-12-25T13:57:41.324Z,86.28
2022-12-25T14:00:18.318Z,86.34
2022-12-25T14:02:45.348Z,86.10
2022-12-25T14:05:32.291Z,86.20
2022-12-25T14:08:13.575Z,86.84
2022-12-25T14:10:40.992Z,86.92
2022-12-25T14:13:11.497Z,86.65
2022-12-25T14:15:40.417Z,86.80
2022-12-25T14:18:07.383Z,86.98
2022-12-25T14:20:40.121Z,86.47
2022-12-25T14:23:07.191Z,86.94
2022-12-25T14:25:36.261Z,86.55
2022-12-25T14:28:07.131Z,86.96
2022-12-25T14:30:34.334Z,87.37
2022-12-25T14:33:02.523Z,87.34
2022-12-25T14:35:29.032Z,87.32
2022-12-25T14:37:59.830Z,87.02
2022-12-25T14:40:30.690Z,87.36
2022-12-25T14:43:01.321Z,87.16
2022-12-25T14:45:36.041Z,87.47
2022-12-25T14:48:19.786Z,86.86
2022-12-25T14:51:02.607Z,87.34
2022-12-25T14:53:34.660Z,87.19
2022-12-25T14:56:01.193Z,87.13
2022-12-25T14:58:30.987Z,87.64
2022-12-25T15:01:02.045Z,88.00
2022-12-25T15:03:36.617Z,87.98
2022-12-25T15:06:04.012Z,88.18
2022-12-25T15:08:31.301Z,87.62
2022-12-25T15:11:01.129Z,88.07
2022-12-25T15:13:29.009Z,87.75
2022-12-25T15:16:02.846Z,87.45
2022-12-25T15:18:33.304Z,88.12
2022-12-25T15:20:59.870Z,87.72
2022-12-25T15:23:26.287Z,87.98
2022-12-25T15:25:52.901Z,88.02
2022-12-25T15:28:19.524Z,87.95
2022-12-25T15:30:46.115Z,87.93
2022-12-25T15:33:17.830Z,88.44
2022-12-25T15:35:44.547Z,88.52
2022-12-25T15:38:12.023Z,88.44
2022-12-25T15:40:38.775Z,88.59
2022-12-25T15:43:11.205Z,88.54
2022-12-25T15:45:48.808Z,88.72
2022-12-25T15:48:15.163Z,88.56
2022-12-25T15:50:41.525Z,88.47
2022-12-25T15:53:07.906Z,88.39
2022-12-25T15:55:34.447Z,88.51
2022-12-25T15:58:00.777Z,88.95
2022-12-25T16:00:27.232Z,89.02
2022-12-25T16:02:53.904Z,88.94
2022-12-25T16:05:20.299Z,88.86
2022-12-25T16:07:46.645Z,88.68
2022-12-25T16:10:18.431Z,89.27
2022-12-25T16:12:45.607Z,89.13
2022-12-25T16:15:13.447Z,88.73
2022-12-25T16:17:39.816Z,89.17
2022-12-25T16:20:07.243Z,89.44
2022-12-25T16:22:39.594Z,89.14
2022-12-25T16:25:17.478Z,89.49
2022-12-25T16:27:43.907Z,90.36
2022-12-25T16:30:12.478Z,89.51
2022-12-25T16:32:38.964Z,89.62
2022-12-25T16:35:05.883Z,89.94
2022-12-25T16:37:32.274Z,90.15
2022-12-25T16:39:58.636Z,90.14
2022-12-25T16:42:25.080Z,89.98
2022-12-25T16:44:51.551Z,89.95
2022-12-25T16:47:17.901Z,89.82
2022-12-25T16:49:44.280Z,90.75
2022-12-25T16:52:10.644Z,89.76
2022-12-25T16:54:37.022Z,90.70
2022-12-25T16:57:03.393Z,90.25
2022-12-25T16:59:30.158Z,90.79
2022-12-25T17:01:56.757Z,90.31
2022-12-25T17:04:23.172Z,90.52
2022-12-25T17:06:49.496Z,90.70
2022-12-25T17:09:15.864Z,90.55
2022-12-25T17:11:42.225Z,90.73
2022-12-25T17:14:10.270Z,90.73
2022-12-25T17:16:37.901Z,90.92
2022-12-25T17:19:08.184Z,91.00
2022-12-25T17:21:35.333Z,90.97
2022-12-25T17:24:04.049Z,90.40
2022-12-25T17:26:31.929Z,91.20
2022-12-25T17:28:58.418Z,91.14
2022-12-25T17:31:24.838Z,90.85
2022-12-25T17:33:51.447Z,89.74
2022-12-25T17:36:19.340Z,90.58
2022-12-25T17:38:46.188Z,90.85
2022-12-25T17:41:14.995Z,90.64
2022-12-25T17:43:42.391Z,90.71
2022-12-25T17:46:14.390Z,90.37
2022-12-25T17:48:40.844Z,90.16
2022-12-25T17:51:10.160Z,90.29
2022-12-25T17:53:38.410Z,91.00
2022-12-25T17:56:05.181Z,90.91
2022-12-25T17:58:31.826Z,90.88
2022-12-25T18:00:58.804Z,90.64
2022-12-25T18:03:25.290Z,91.59
2022-12-25T18:05:51.714Z,90.63
2022-12-25T18:08:18.067Z,91.05
2022-12-25T18:10:44.468Z,91.25
2022-12-25T18:13:11.746Z,90.81
2022-12-25T18:15:39.477Z,91.18
2022-12-25T18:18:07.628Z,91.02
2022-12-25T18:20:39.616Z,90.43
2022-12-25T18:23:06.708Z,90.22
2022-12-25T18:25:33.675Z,90.87
2022-12-25T18:28:02.733Z,91.03
2022-12-25T18:30:29.313Z,90.63
2022-12-25T18:32:55.647Z,90.53
2022-12-25T18:35:22.178Z,90.53
2022-12-25T18:37:48.615Z,90.67
2022-12-25T18:40:15.017Z,90.61
2022-12-25T18:42:42.889Z,91.21
2022-12-25T18:45:10.840Z,91.22
2022-12-25T18:47:37.213Z,91.11
2022-12-25T18:50:04.153Z,91.10
2022-12-25T18:52:48.123Z,90.07
2022-12-25T18:55:17.139Z,91.02
2022-12-25T18:57:43.558Z,89.90
2022-12-25T19:00:10.364Z,89.92
2022-12-25T19:02:36.851Z,90.19
2022-12-25T19:05:03.472Z,89.32
2022-12-25T19:07:29.795Z,89.94
2022-12-25T19:09:56.164Z,89.11
2022-12-25T19:12:22.590Z,89.55
2022-12-25T19:14:49.275Z,89.05
2022-12-25T19:17:17.097Z,89.35
2022-12-25T19:19:43.326Z,89.16
2022-12-25T19:22:09.728Z,89.80
2022-12-25T19:24:36.785Z,90.01
2022-12-25T19:27:03.512Z,90.24
2022-12-25T19:29:30.051Z,89.54
2022-12-25T19:31:56.572Z,89.75
2022-12-25T19:34:23.252Z,90.11
2022-12-25T19:36:49.633Z,90.19
2022-12-25T19:39:15.978Z,90.18
2022-12-25T19:41:42.423Z,89.80
2022-12-25T19:44:08.799Z,89.45
2022-12-25T19:46:37.060Z,89.59
2022-12-25T19:49:04.451Z,89.32
2022-12-25T19:51:36.202Z,89.22
2022-12-25T19:54:03.586Z,89.37
2022-12-25T19:56:30.305Z,89.39
2022-12-25T19:58:56.743Z,89.83
2022-12-25T20:01:26.009Z,89.04
2022-12-25T20:03:52.938Z,89.63
2022-12-25T20:06:28.152Z,89.52
2022-12-25T20:08:56.681Z,89.79
2022-12-25T20:11:24.675Z,89.84
2022-12-25T20:13:51.084Z,89.73
2022-12-25T20:16:17.618Z,89.47
2022-12-25T20:18:44.325Z,89.92
2022-12-25T20:21:13.929Z,90.00
2022-12-25T20:23:41.651Z,89.70
2022-12-25T20:26:08.173Z,89.59
2022-12-25T20:28:36.335Z,89.53
2022-12-25T20:31:06.839Z,90.04
2022-12-25T20:33:34.060Z,89.76
2022-12-25T20:36:01.745Z,89.99
2022-12-25T20:38:28.630Z,89.43
2022-12-25T20:41:26.363Z,89.26
2022-12-25T20:43:50.092Z,89.25
2022-12-25T20:46:16.587Z,88.94
2022-12-25T20:48:43.013Z,88.85
2022-12-25T20:51:14.438Z,89.36
2022-12-25T20:53:41.041Z,89.07
2022-12-25T20:56:12.356Z,89.09
2022-12-25T20:58:38.779Z,88.91
2022-12-25T21:01:12.852Z,89.52
2022-12-25T21:03:40.081Z,89.33
2022-12-25T21:06:07.539Z,88.83
2022-12-25T21:08:33.938Z,88.40
2022-12-25T21:11:01.275Z,88.67
2022-12-25T21:13:29.651Z,88.85
2022-12-25T21:15:57.151Z,88.95
2022-12-25T21:18:24.899Z,88.73
2022-12-25T21:20:53.703Z,88.96
2022-12-25T21:23:20.320Z,89.11
2022-12-25T21:25:47.174Z,88.98
2022-12-25T21:28:13.722Z,88.40
2022-12-25T21:30:40.244Z,88.38
2022-12-25T21:33:25.432Z,88.60
2022-12-25T21:35:51.830Z,88.84
2022-12-25T21:38:18.265Z,88.86
2022-12-25T21:40:44.777Z,88.46
2022-12-25T21:43:14.041Z,88.82
2022-12-25T21:45:40.377Z,88.57
2022-12-25T21:48:06.734Z,88.33
2022-12-25T21:50:51.538Z,88.24
2022-12-25T21:53:19.283Z,87.98
2022-12-25T21:55:56.894Z,87.38
2022-12-25T21:58:23.572Z,87.97
2022-12-25T22:00:49.931Z,87.04
2022-12-25T22:03:16.324Z,87.21
2022-12-25T22:06:01.313Z,87.48
2022-12-25T22:08:31.490Z,87.41
2022-12-25T22:10:58.510Z,86.95
2022-12-25T22:13:43.541Z,87.08
2022-12-25T22:16:28.589Z,87.10
2022-12-25T22:19:13.436Z,87.25
2022-12-25T22:21:39.896Z,86.82
2022-12-25T22:24:08.065Z,87.00
2022-12-25T22:26:34.851Z,86.32
2022-12-25T22:29:01.408Z,86.25
2022-12-25T22:31:27.821Z,86.03
2022-12-25T22:33:55.273Z,85.60
2022-12-25T22:36:21.677Z,85.46
2022-12-25T22:38:48.047Z,85.68
2022-12-25T22:41:14.402Z,85.97
2022-12-25T22:44:15.117Z,85.45
2022-12-25T22:46:27.091Z,85.54
2022-12-25T22:48:53.872Z,85.78
2022-12-25T22:51:20.266Z,85.80
2022-12-25T22:53:46.618Z,86.09
2022-12-25T22:56:13.001Z,85.80
2022-12-25T22:58:39.395Z,85.98
2022-12-25T23:01:09.009Z,85.52
2022-12-25T23:03:35.535Z,85.94
2022-12-25T23:06:02.463Z,85.77
2022-12-25T23:08:29.573Z,85.78
2022-12-25T23:10:56.028Z,85.98
2022-12-25T23:13:41.081Z,86.39
2022-12-25T23:16:13.438Z,85.83
2022-12-25T23:18:58.118Z,85.63
2022-12-25T23:21:44.973Z,85.73
2022-12-25T23:24:30.241Z,85.33
2022-12-25T23:26:57.240Z,85.49
2022-12-25T23:29:35.736Z,85.24
2022-12-25T23:32:07.673Z,85.10
2022-12-25T23:34:34.982Z,84.80
2022-12-25T23:37:01.412Z,85.14
2022-12-25T23:39:28.323Z,83.57
2022-12-25T23:41:55.173Z,82.87
2022-12-25T23:44:21.543Z,83.17
2022-12-25T23:46:52.518Z,83.06
2022-12-25T23:49:20.532Z,82.94
2022-12-25T23:51:47.140Z,82.37
2022-12-25T23:54:16.547Z,82.76
2022-12-25T23:56:43.254Z,82.72
2022-12-25T23:59:10.082Z,82.78
